createdAt,value
2022-11-06T00:01:49.590Z,87
2022-11-06T00:05:14.797Z,87
2022-11-06T00:08:40.045Z,88
2022-11-06T00:12:05.311Z,88
2022-11-06T00:15:30.530Z,89
2022-11-06T00:18:55.779Z,88
2022-11-06T00:22:21.041Z,88
2022-11-06T00:25:46.328Z,88
2022-11-06T00:29:11.543Z,88
2022-11-06T00:32:36.757Z,88
2022-11-06T00:36:02.036Z,88
2022-11-06T00:39:27.230Z,88
2022-11-06T00:42:52.503Z,88
2022-11-06T00:46:17.769Z,88
2022-11-06T00:49:42.971Z,87
2022-11-06T00:53:08.195Z,88
2022-11-06T00:56:33.440Z,88
2022-11-06T00:59:58.695Z,88
2022-11-06T01:03:23.952Z,89
2022-11-06T01:06:49.182Z,88
2022-11-06T01:10:14.413Z,88
2022-11-06T01:13:39.658Z,88
2022-11-06T01:17:04.918Z,87
2022-11-06T01:20:30.190Z,88
2022-11-06T01:23:55.395Z,88
2022-11-06T01:27:26.209Z,88
2022-11-06T01:30:45.860Z,89
2022-11-06T01:34:11.122Z,89
2022-11-06T01:37:36.391Z,88
2022-11-06T01:41:01.619Z,87
2022-11-06T01:44:26.851Z,87
2022-11-06T01:47:52.092Z,87
2022-11-06T01:51:17.347Z,87
2022-11-06T01:54:42.614Z,87
2022-11-06T01:58:07.839Z,87
2022-11-06T02:01:33.143Z,88
2022-11-06T02:04:58.328Z,87
2022-11-06T02:08:23.590Z,88
2022-11-06T02:11:48.968Z,87
2022-11-06T02:15:14.067Z,86
2022-11-06T02:18:39.289Z,87
2022-11-06T02:22:04.568Z,87
2022-11-06T02:25:29.814Z,87
2022-11-06T02:28:55.064Z,87
2022-11-06T02:32:20.310Z,86
2022-11-06T02:35:45.547Z,86
2022-11-06T02:39:10.783Z,86
2022-11-06T02:42:36.030Z,85
2022-11-06T02:46:01.309Z,86
2022-11-06T02:49:26.492Z,86
2022-11-06T02:52:51.731Z,86
2022-11-06T02:56:16.959Z,86
2022-11-06T02:59:42.188Z,86
2022-11-06T03:03:07.495Z,86
2022-11-06T03:06:32.648Z,86
2022-11-06T03:09:57.900Z,86
2022-11-06T03:13:23.101Z,85
2022-11-06T03:16:48.353Z,84
2022-11-06T03:20:13.604Z,85
2022-11-06T03:23:38.793Z,85
2022-11-06T03:27:04.041Z,85
2022-11-06T03:30:29.307Z,85
2022-11-06T03:33:54.578Z,85
2022-11-06T03:37:19.841Z,85
2022-11-06T03:40:45.041Z,85
2022-11-06T03:44:10.253Z,85
2022-11-06T03:47:35.489Z,86
2022-11-06T03:51:00.711Z,87
2022-11-06T03:54:25.955Z,87
2022-11-06T03:57:51.184Z,87
2022-11-06T04:01:16.429Z,87
2022-11-06T04:04:41.677Z,89
2022-11-06T04:08:06.902Z,89
2022-11-06T04:11:32.147Z,88
2022-11-06T04:14:57.354Z,88
2022-11-06T04:18:22.612Z,88
2022-11-06T04:21:47.841Z,88
2022-11-06T04:25:13.075Z,88
2022-11-06T04:28:38.316Z,88
2022-11-06T04:32:03.520Z,88
2022-11-06T04:35:28.782Z,88
2022-11-06T04:38:53.988Z,88
2022-11-06T04:42:19.209Z,88
2022-11-06T04:45:44.468Z,88
2022-11-06T04:49:09.682Z,88
2022-11-06T04:52:34.904Z,87
2022-11-06T04:56:00.165Z,87
2022-11-06T04:59:25.402Z,87
2022-11-06T05:02:50.655Z,87
2022-11-06T05:06:15.880Z,87
2022-11-06T05:09:41.110Z,88
2022-11-06T05:13:06.336Z,88
2022-11-06T05:16:31.571Z,88
2022-11-06T05:19:56.827Z,89
2022-11-06T05:23:22.036Z,88
2022-11-06T05:26:47.286Z,89
2022-11-06T05:30:12.530Z,89
2022-11-06T05:33:37.790Z,88
2022-11-06T05:37:03.037Z,88
2022-11-06T05:40:28.232Z,88
2022-11-06T05:43:53.480Z,88
2022-11-06T05:47:18.694Z,88
2022-11-06T05:50:43.937Z,89
2022-11-06T05:54:09.199Z,89
2022-11-06T05:57:34.388Z,88
2022-11-06T06:00:59.674Z,89
2022-11-06T06:04:24.920Z,89
2022-11-06T06:07:50.158Z,89
2022-11-06T06:11:15.466Z,88
2022-11-06T06:14:40.730Z,88
2022-11-06T06:18:06.061Z,88
2022-11-06T06:21:31.340Z,88
2022-11-06T06:24:56.643Z,88
2022-11-06T06:28:22.348Z,88
2022-11-06T06:31:47.612Z,88
2022-11-06T06:35:12.909Z,88
2022-11-06T06:38:38.693Z,88
2022-11-06T06:42:03.959Z,88
2022-11-06T06:45:33.702Z,88
2022-11-06T06:48:58.996Z,88
2022-11-06T06:52:31.713Z,88
2022-11-06T06:56:04.200Z,88
2022-11-06T06:59:29.546Z,88
2022-11-06T07:02:55.222Z,88
2022-11-06T07:06:20.324Z,88
2022-11-06T07:09:45.703Z,88
2022-11-06T07:13:16.309Z,88
2022-11-06T07:16:51.124Z,88
2022-11-06T07:20:19.150Z,89
2022-11-06T07:23:50.456Z,88
2022-11-06T07:27:23.898Z,87
2022-11-06T07:30:51.591Z,88
2022-11-06T07:34:43.319Z,88
2022-11-06T07:38:20.075Z,88
2022-11-06T07:42:02.470Z,87
2022-11-06T07:45:31.063Z,86
2022-11-06T07:48:56.373Z,87
2022-11-06T07:52:21.623Z,86
2022-11-06T07:55:46.993Z,86
2022-11-06T07:59:12.222Z,86
2022-11-06T08:02:37.518Z,86
2022-11-06T08:06:02.732Z,86
2022-11-06T08:09:28.127Z,87
2022-11-06T08:12:54.035Z,86
2022-11-06T08:16:20.257Z,87
2022-11-06T08:19:45.611Z,87
2022-11-06T08:23:11.011Z,88
2022-11-06T08:26:36.301Z,88
2022-11-06T08:30:01.773Z,88
2022-11-06T08:33:27.297Z,88
2022-11-06T08:36:52.674Z,88
2022-11-06T08:40:18.021Z,88
2022-11-06T08:43:43.388Z,88
2022-11-06T08:47:08.732Z,87
2022-11-06T08:50:33.995Z,88
2022-11-06T08:53:59.413Z,88
2022-11-06T08:57:24.830Z,88
2022-11-06T09:00:50.152Z,86
2022-11-06T09:04:15.514Z,86
2022-11-06T09:07:40.834Z,87
2022-11-06T09:11:06.056Z,86
2022-11-06T09:14:31.345Z,87
2022-11-06T09:17:56.587Z,85
2022-11-06T09:21:21.862Z,85
2022-11-06T09:25:03.004Z,85
2022-11-06T09:28:13.343Z,85
2022-11-06T09:31:38.622Z,84
2022-11-06T09:35:03.880Z,85
2022-11-06T09:38:29.202Z,84
2022-11-06T09:41:54.379Z,84
2022-11-06T09:45:19.642Z,82
2022-11-06T09:48:44.998Z,82
2022-11-06T09:52:10.223Z,81
2022-11-06T09:55:35.477Z,83
2022-11-06T09:59:00.766Z,81
2022-11-06T10:02:26.089Z,81
2022-11-06T10:05:51.238Z,81
2022-11-06T10:09:16.481Z,80
2022-11-06T10:12:41.776Z,80
2022-11-06T10:16:18.058Z,80
2022-11-06T10:19:43.331Z,79
2022-11-06T10:23:37.314Z,80
2022-11-06T10:27:02.815Z,81
2022-11-06T10:30:28.376Z,79
2022-11-06T10:33:53.667Z,78
2022-11-06T10:37:18.910Z,79
2022-11-06T10:40:49.100Z,79
2022-11-06T10:44:15.064Z,78
2022-11-06T10:47:40.504Z,77
2022-11-06T10:51:07.544Z,77
2022-11-06T10:54:37.900Z,78
2022-11-06T10:58:04.156Z,78
2022-11-06T11:01:29.971Z,79
2022-11-06T11:04:58.101Z,78
2022-11-06T11:08:21.778Z,79
2022-11-06T11:11:47.242Z,79
2022-11-06T11:15:12.506Z,78
2022-11-06T11:18:37.843Z,78
2022-11-06T11:22:03.312Z,79
2022-11-06T11:25:28.523Z,78
2022-11-06T11:28:53.836Z,75
2022-11-06T11:32:19.203Z,76
2022-11-06T11:35:44.606Z,76
2022-11-06T11:39:09.842Z,76
2022-11-06T11:42:35.114Z,74
2022-11-06T11:46:01.042Z,73
2022-11-06T11:49:27.365Z,73
2022-11-06T11:52:52.568Z,74
2022-11-06T11:56:26.750Z,76
2022-11-06T11:59:43.073Z,74
2022-11-06T12:03:08.397Z,76
2022-11-06T12:06:33.556Z,75
2022-11-06T12:09:58.836Z,75
2022-11-06T12:13:24.070Z,75
2022-11-06T12:16:49.298Z,74
2022-11-06T12:20:14.599Z,75
2022-11-06T12:23:39.889Z,74
2022-11-06T12:27:05.145Z,74
2022-11-06T12:30:30.575Z,74
2022-11-06T12:34:16.183Z,73
2022-11-06T12:37:21.153Z,73
2022-11-06T12:40:46.424Z,72
2022-11-06T12:44:11.697Z,72
2022-11-06T12:47:37.006Z,72
2022-11-06T12:51:02.257Z,72
2022-11-06T12:54:27.533Z,72
2022-11-06T12:57:52.832Z,71
2022-11-06T13:01:18.135Z,71
2022-11-06T13:04:43.389Z,70
2022-11-06T13:08:08.644Z,71
2022-11-06T13:11:33.955Z,71
2022-11-06T13:14:59.276Z,71
2022-11-06T13:18:24.561Z,70
2022-11-06T13:21:50.031Z,71
2022-11-06T13:25:15.173Z,69
2022-11-06T13:28:40.434Z,70
2022-11-06T13:32:05.717Z,71
2022-11-06T13:35:31.043Z,72
2022-11-06T13:38:56.349Z,73
2022-11-06T13:42:21.588Z,74
2022-11-06T13:45:46.890Z,74
2022-11-06T13:49:12.184Z,73
2022-11-06T13:52:37.478Z,73
2022-11-06T13:56:02.847Z,74
2022-11-06T13:59:32.885Z,74
2022-11-06T14:02:53.777Z,74
2022-11-06T14:06:19.486Z,74
2022-11-06T14:09:45.090Z,73
2022-11-06T14:13:10.605Z,73
2022-11-06T14:16:36.037Z,73
2022-11-06T14:20:01.435Z,74
2022-11-06T14:23:27.281Z,74
2022-11-06T14:26:58.284Z,74
2022-11-06T15:04:38.393Z,77
2022-11-06T15:08:05.205Z,78
2022-11-06T15:11:28.819Z,78
2022-11-06T15:14:54.673Z,78
2022-11-06T15:18:19.905Z,79
2022-11-06T15:21:45.452Z,79
2022-11-06T15:25:10.529Z,79
2022-11-06T15:28:36.130Z,80
2022-11-06T15:32:01.374Z,80
2022-11-06T15:35:26.572Z,81
2022-11-06T15:38:51.896Z,81
2022-11-06T15:42:17.521Z,81
2022-11-06T15:45:45.049Z,81
2022-11-06T15:49:10.675Z,82
2022-11-06T15:52:35.913Z,81
2022-11-06T15:56:01.196Z,81
2022-11-06T15:59:26.505Z,81
2022-11-06T16:02:51.764Z,81
2022-11-06T16:06:17.000Z,82
2022-11-06T16:09:42.267Z,82
2022-11-06T16:13:07.561Z,82
2022-11-06T16:16:32.793Z,82
2022-11-06T16:19:58.040Z,82
2022-11-06T16:23:29.412Z,82
2022-11-06T16:26:48.980Z,82
2022-11-06T16:30:14.251Z,82
2022-11-06T16:33:39.453Z,83
2022-11-06T16:37:04.721Z,83
2022-11-06T16:40:29.956Z,83
2022-11-06T16:43:55.198Z,83
2022-11-06T16:47:20.644Z,83
2022-11-06T16:50:45.678Z,83
2022-11-06T16:54:11.161Z,83
2022-11-06T16:57:36.411Z,84
2022-11-06T17:01:01.784Z,84
2022-11-06T17:04:27.127Z,84
2022-11-06T17:07:52.882Z,85
2022-11-06T17:11:18.103Z,84
2022-11-06T17:14:43.360Z,85
2022-11-06T17:18:08.600Z,86
2022-11-06T17:21:33.871Z,86
2022-11-06T17:24:59.084Z,87
2022-11-06T17:28:24.335Z,87
2022-11-06T17:31:49.580Z,87
2022-11-06T17:35:14.858Z,88
2022-11-06T17:38:40.122Z,89
2022-11-06T17:42:05.396Z,89
2022-11-06T17:45:30.671Z,90
2022-11-06T17:48:55.928Z,90
2022-11-06T17:52:21.178Z,90
2022-11-06T17:55:46.453Z,90
2022-11-06T17:59:11.679Z,90
2022-11-06T18:02:59.503Z,90
2022-11-06T18:06:02.159Z,90
2022-11-06T18:09:27.391Z,90
2022-11-06T18:12:52.744Z,89
2022-11-06T18:16:17.877Z,89
2022-11-06T18:19:43.165Z,88
2022-11-06T18:23:08.460Z,88
2022-11-06T18:26:33.686Z,88
2022-11-06T18:29:59.092Z,88
2022-11-06T18:33:24.210Z,88
2022-11-06T18:36:49.435Z,89
2022-11-06T18:40:14.671Z,89
2022-11-06T18:43:39.908Z,89
2022-11-06T18:47:05.146Z,90
2022-11-06T18:50:30.373Z,90
2022-11-06T18:53:55.594Z,90
2022-11-06T18:57:20.831Z,89
2022-11-06T19:00:46.068Z,89
2022-11-06T19:04:11.425Z,89
2022-11-06T19:07:36.552Z,89
2022-11-06T19:11:01.786Z,89
2022-11-06T19:14:27.037Z,89
2022-11-06T19:17:52.278Z,90
2022-11-06T19:21:17.524Z,90
2022-11-06T19:24:42.776Z,89
2022-11-06T19:28:07.981Z,90
2022-11-06T19:31:33.273Z,89
2022-11-06T19:34:58.476Z,89
2022-11-06T19:38:23.776Z,89
2022-11-06T19:41:48.986Z,89
2022-11-06T19:45:14.212Z,89
2022-11-06T19:48:39.433Z,89
2022-11-06T19:52:40.876Z,89
2022-11-06T19:55:29.867Z,89
2022-11-06T19:58:55.101Z,90
2022-11-06T20:02:20.462Z,90
2022-11-06T20:05:45.520Z,89
2022-11-06T20:09:10.746Z,89
2022-11-06T20:12:36.080Z,89
2022-11-06T20:16:01.198Z,89
2022-11-06T20:19:26.452Z,88
2022-11-06T20:22:51.707Z,88
2022-11-06T20:26:16.990Z,88
2022-11-06T20:29:42.227Z,88
2022-11-06T20:33:07.457Z,88
2022-11-06T20:36:32.676Z,88
2022-11-06T20:39:57.922Z,87
2022-11-06T20:43:23.151Z,87
2022-11-06T20:46:48.420Z,87
2022-11-06T20:50:13.688Z,87
2022-11-06T20:53:38.931Z,87
2022-11-06T20:57:04.189Z,87
2022-11-06T21:00:29.429Z,87
2022-11-06T21:03:54.722Z,88
2022-11-06T21:07:19.947Z,87
2022-11-06T21:10:45.202Z,87
2022-11-06T21:14:10.457Z,87
2022-11-06T21:17:35.721Z,88
2022-11-06T21:21:00.938Z,88
2022-11-06T21:24:26.167Z,88
2022-11-06T21:27:51.433Z,88
2022-11-06T21:31:16.684Z,89
2022-11-06T21:34:41.931Z,89
2022-11-06T21:38:07.209Z,89
2022-11-06T21:41:32.404Z,90
2022-11-06T21:44:57.667Z,90
2022-11-06T21:48:40.453Z,90
2022-11-06T21:51:48.169Z,90
2022-11-06T21:55:13.449Z,90
2022-11-06T21:58:38.699Z,90
2022-11-06T22:02:04.037Z,90
2022-11-06T22:05:29.175Z,90
2022-11-06T22:08:54.439Z,90
2022-11-06T22:12:19.881Z,90
2022-11-06T22:15:44.965Z,90
2022-11-06T22:19:10.245Z,90
2022-11-06T22:22:35.497Z,90
2022-11-06T22:26:00.742Z,90
2022-11-06T22:29:25.988Z,90
2022-11-06T22:32:51.206Z,90
2022-11-06T22:36:16.436Z,90
2022-11-06T22:39:41.713Z,90
2022-11-06T22:43:06.964Z,90
2022-11-06T22:46:32.248Z,90
2022-11-06T22:49:57.424Z,90
2022-11-06T22:53:22.689Z,90
2022-11-06T22:56:47.921Z,90
2022-11-06T23:00:13.167Z,90
2022-11-06T23:03:38.474Z,90
2022-11-06T23:07:03.657Z,90
2022-11-06T23:10:28.932Z,90
2022-11-06T23:13:54.176Z,90
2022-11-06T23:17:19.409Z,89
2022-11-06T23:20:44.705Z,89
2022-11-06T23:24:09.929Z,88
2022-11-06T23:27:35.177Z,88
2022-11-06T23:31:00.433Z,88
2022-11-06T23:34:25.683Z,88
2022-11-06T23:37:50.975Z,87
2022-11-06T23:41:16.194Z,86
2022-11-06T23:44:41.417Z,86
2022-11-06T23:48:08.657Z,86
2022-11-06T23:51:31.940Z,86
2022-11-06T23:54:57.295Z,86
2022-11-06T23:58:22.419Z,86
